This is the latest recevied weather packets stored in our database for station/object N9CQS-13. If no packets are shown the sender has not sent any weather packets the latest 10 day(s).
| Time | Temp. | Humidity | Pressure | Rain* | Wind** | Luminosity | Snow |
|---|---|---|---|---|---|---|---|
| 1777494692 | 17.22° C | 50% | 1015 hPa | 0 mm | - | - | - |
| 1777494092 | 16.67° C | 52% | 1015 hPa | 0 mm | - | - | - |
| 1777493492 | 16.67° C | 53% | 1015 hPa | 0 mm | - | - | - |
| 1777492892 | 17.22° C | 52% | 1015.2 hPa | 0 mm | - | - | - |
| 1777492292 | 18.33° C | 51% | 1014.9 hPa | 0 mm | - | - | - |
| 1777491692 | 17.78° C | 54% | 1015 hPa | 0 mm | - | - | - |
| 1777491092 | 17.78° C | 54% | 1015 hPa | 0 mm | - | - | - |
| 1777490492 | 17.22° C | 54% | 1015.1 hPa | 0 mm | - | - | - |
| 1777489892 | 16.67° C | 56% | 1015.1 hPa | 0 mm | - | - | - |
| 1777489292 | 17.78° C | 55% | 1014.9 hPa | 0 mm | - | - | - |
| 1777488692 | 17.22° C | 57% | 1014.9 hPa | 0 mm | - | - | - |
| 1777488092 | 17.78° C | 55% | 1014.7 hPa | 0 mm | - | - | - |
| 1777487492 | 16.67° C | 58% | 1014.7 hPa | 0 mm | - | - | - |
| 1777486892 | 16.67° C | 58% | 1014.7 hPa | 0 mm | - | - | - |
| 1777486292 | 16.67° C | 58% | 1014.7 hPa | 0 mm | - | - | - |
| 1777485693 | 17.22° C | 57% | 1014.5 hPa | 0 mm | - | - | - |
| 1777485092 | 17.78° C | 57% | 1014.6 hPa | 0 mm | - | - | - |
| 1777484492 | 17.22° C | 57% | 1014.5 hPa | 0 mm | - | - | - |
| 1777483892 | 16.67° C | 59% | 1014.6 hPa | 0 mm | - | - | - |
| 1777483292 | 16.11° C | 60% | 1014.7 hPa | 0 mm | - | - | - |
| 1777482692 | 16.67° C | 59% | 1014.7 hPa | 0 mm | - | - | - |
| 1777482092 | 17.22° C | 59% | 1014.7 hPa | 0 mm | - | - | - |
| 1777481492 | 17.22° C | 57% | 1014.4 hPa | 0 mm | - | - | - |
| 1777480892 | 17.78° C | 58% | 1014.5 hPa | 0 mm | - | - | - |
| 1777480292 | 17.78° C | 59% | 1014.4 hPa | 0 mm | - | - | - |
* Rain latest hour (hover to see other rain measurements)
** Current wind speed in m/s (hover to see current wind gust speed)